Time;durP1;ratioP1;P1;durP2;ratioP2;P2;SDS_P1;SDS_P2;PMS_P1;PMS_P2;Temp;Humidity;BMP_temperature;BMP_pressure;BME280_temperature;BME280_humidity;BME280_pressure;Samples;Min_cycle;Max_cycle;Signal;HPM_P1;HPM_P2
2023/10/19 00:00:50;;;;;;;0.90;0.90;;;8.10;99.90;;;;;;5095445;28;20085;-69
2023/10/19 00:03:19;;;;;;;1.00;1.00;;;8.20;99.90;;;;;;5095310;28;20044;-69
2023/10/19 00:05:46;;;;;;;1.27;1.17;;;8.20;99.90;;;;;;5095437;28;20134;-70
2023/10/19 00:10:39;;;;;;;0.80;0.80;;;8.20;99.90;;;;;;5095126;28;20079;-70
2023/10/19 00:13:05;;;;;;;1.20;0.80;;;8.20;99.90;;;;;;5095182;28;20361;-70
2023/10/19 00:15:34;;;;;;;0.80;0.80;;;9.00;99.90;;;;;;5095162;28;20050;-70
2023/10/19 00:18:13;;;;;;;0.80;0.80;;;8.20;99.90;;;;;;5095210;28;20040;-70
2023/10/19 00:23:13;;;;;;;1.58;1.48;;;8.10;99.90;;;;;;5095212;28;20455;-72
2023/10/19 00:25:41;;;;;;;1.00;0.95;;;8.20;99.90;;;;;;5095464;28;20390;-70
2023/10/19 00:28:07;;;;;;;0.80;0.80;;;8.10;99.90;;;;;;5094959;28;20059;-71
2023/10/19 00:30:35;;;;;;;0.90;0.90;;;8.10;99.90;;;;;;5095331;28;20043;-71
2023/10/19 00:33:04;;;;;;;1.10;1.00;;;8.10;99.90;;;;;;5095037;28;20076;-73
2023/10/19 00:35:42;;;;;;;1.10;1.00;;;8.10;99.90;;;;;;5094706;28;20063;-71
2023/10/19 00:38:50;;;;;;;0.80;0.80;;;8.10;99.90;;;;;;5094754;28;20082;-70
2023/10/19 00:41:12;;;;;;;1.00;1.00;;;8.10;99.90;;;;;;5091124;28;20044;-70
2023/10/19 00:43:43;;;;;;;0.90;0.90;;;8.10;99.90;;;;;;5094099;28;20044;-73
2023/10/19 00:46:20;;;;;;;0.80;0.80;;;8.10;99.90;;;;;;5095025;28;20122;-70
2023/10/19 00:48:59;;;;;;;1.17;1.17;;;8.10;99.90;;;;;;5094821;28;20036;-73
2023/10/19 00:54:26;;;;;;;0.85;0.85;;;8.30;99.90;;;;;;5094470;28;20048;-72
2023/10/19 00:56:55;;;;;;;1.58;1.48;;;8.10;99.90;;;;;;5094669;28;20047;-73
2023/10/19 00:59:24;;;;;;;3.15;2.85;;;8.40;99.90;;;;;;5094212;28;20039;-71
2023/10/19 01:01:54;;;;;;;1.00;0.90;;;8.10;99.90;;;;;;5094214;28;20352;-69
2023/10/19 01:04:22;;;;;;;0.90;0.90;;;8.10;99.90;;;;;;5094186;28;20491;-71
2023/10/19 01:07:04;;;;;;;1.52;1.40;;;8.10;99.90;;;;;;5094124;28;20044;-71
2023/10/19 01:09:35;;;;;;;1.15;1.05;;;8.10;99.90;;;;;;5093813;28;20051;-72
2023/10/19 01:12:21;;;;;;;0.90;0.90;;;8.70;99.90;;;;;;5094064;28;20040;-72
2023/10/19 01:17:58;;;;;;;1.10;1.00;;;8.10;99.90;;;;;;5094663;28;20100;-73
2023/10/19 01:31:16;;;;;;;0.93;0.90;;;8.10;99.90;;;;;;5094143;28;20036;-71
2023/10/19 01:33:44;;;;;;;0.90;0.90;;;8.20;99.90;;;;;;5093906;28;20044;-74
2023/10/19 01:36:10;;;;;;;0.90;0.90;;;8.10;99.90;;;;;;5093929;28;20044;-71
2023/10/19 01:38:36;;;;;;;67.82;7.55;;;8.10;99.90;;;;;;5092640;28;20113;-71
2023/10/19 01:41:19;;;;;;;1.30;1.20;;;8.10;99.90;;;;;;5093767;28;20488;-70
2023/10/19 01:43:48;;;;;;;1.10;1.00;;;8.30;99.90;;;;;;5093753;28;20117;-70
2023/10/19 01:46:23;;;;;;;1.45;1.35;;;8.10;99.90;;;;;;5093631;28;20056;-69
2023/10/19 01:48:53;;;;;;;1.17;1.08;;;8.50;99.90;;;;;;5094156;28;20421;-70
2023/10/19 01:51:20;;;;;;;1.27;1.17;;;8.50;99.90;;;;;;5093625;28;20062;-74
2023/10/19 01:53:46;;;;;;;0.90;0.90;;;8.10;99.90;;;;;;5093398;28;20055;-74
2023/10/19 01:56:14;;;;;;;1.42;1.33;;;8.10;99.90;;;;;;5095019;28;20123;-70
2023/10/19 01:58:41;;;;;;;0.90;0.90;;;8.10;99.90;;;;;;5097465;28;20518;-71
2023/10/19 02:01:14;;;;;;;1.70;1.20;;;8.20;99.90;;;;;;5097675;28;20111;-71
2023/10/19 02:03:43;;;;;;;0.90;0.90;;;8.10;99.90;;;;;;5098133;28;20114;-71
2023/10/19 02:06:26;;;;;;;1.85;1.52;;;8.10;99.90;;;;;;5097619;28;20114;-70
2023/10/19 02:09:21;;;;;;;0.85;0.85;;;8.20;99.90;;;;;;5097715;28;20542;-72
2023/10/19 02:11:58;;;;;;;1.20;1.10;;;8.10;99.90;;;;;;5080251;28;20060;-71
2023/10/19 02:14:25;;;;;;;1.20;1.10;;;8.50;99.90;;;;;;5097857;28;20040;-71
2023/10/19 02:16:54;;;;;;;1.30;1.20;;;8.20;99.90;;;;;;5097442;28;20044;-70
2023/10/19 02:19:20;;;;;;;1.40;1.30;;;8.20;99.90;;;;;;5097376;28;20063;-72
2023/10/19 02:21:49;;;;;;;1.25;1.15;;;8.20;99.90;;;;;;5097339;28;20044;-71
2023/10/19 02:24:14;;;;;;;0.90;0.90;;;8.20;99.90;;;;;;5097499;28;20040;-72
2023/10/19 02:26:46;;;;;;;0.90;0.90;;;8.20;99.90;;;;;;5097176;28;20039;-73
2023/10/19 02:29:12;;;;;;;1.45;1.38;;;8.30;99.90;;;;;;5097187;28;20040;-71
2023/10/19 02:31:39;;;;;;;1.10;1.00;;;8.40;99.90;;;;;;5096721;28;20036;-72
2023/10/19 02:34:07;;;;;;;1.00;0.93;;;8.20;99.90;;;;;;5097081;28;20376;-70
2023/10/19 02:36:33;;;;;;;1.10;1.00;;;8.20;99.90;;;;;;5096915;28;20044;-71
2023/10/19 02:39:07;;;;;;;1.85;1.17;;;8.90;99.90;;;;;;5097064;28;20061;-72
2023/10/19 02:41:36;;;;;;;0.90;0.90;;;8.20;99.90;;;;;;5097068;28;20114;-73
2023/10/19 02:46:30;;;;;;;1.10;1.00;;;8.20;99.90;;;;;;5097141;28;20153;-73
2023/10/19 02:48:56;;;;;;;1.15;1.05;;;8.30;99.90;;;;;;5095742;28;20052;-73
2023/10/19 02:51:22;;;;;;;0.90;0.90;;;8.20;99.90;;;;;;5096440;28;20043;-71
2023/10/19 02:53:48;;;;;;;0.80;0.80;;;8.20;99.90;;;;;;5096681;28;20044;-72
2023/10/19 02:56:19;;;;;;;2.92;2.33;;;8.20;99.90;;;;;;5095379;28;20486;-70
2023/10/19 02:58:49;;;;;;;0.90;0.90;;;8.30;99.90;;;;;;5096747;28;20040;-72
2023/10/19 03:01:29;;;;;;;1.80;1.70;;;8.30;99.90;;;;;;5096659;28;20115;-70
2023/10/19 03:03:59;;;;;;;0.90;0.90;;;8.30;99.90;;;;;;5096515;28;20108;-72
2023/10/19 03:06:31;;;;;;;0.90;0.90;;;8.30;99.90;;;;;;5096780;28;20036;-69
2023/10/19 03:09:04;;;;;;;0.90;0.90;;;8.30;99.90;;;;;;5096429;28;20078;-72
2023/10/19 03:11:34;;;;;;;0.95;0.95;;;9.00;99.90;;;;;;5096508;28;20040;-69
2023/10/19 03:14:04;;;;;;;0.80;0.80;;;8.30;99.90;;;;;;5096196;28;20464;-72
2023/10/19 03:16:30;;;;;;;0.93;0.93;;;8.30;99.90;;;;;;5096283;28;20081;-70
2023/10/19 03:18:56;;;;;;;0.90;0.90;;;8.40;99.90;;;;;;5096235;28;20036;-71
2023/10/19 03:21:27;;;;;;;1.10;1.00;;;8.50;99.90;;;;;;5096493;28;20039;-72
2023/10/19 03:23:54;;;;;;;1.10;1.00;;;8.40;99.90;;;;;;5096156;28;20085;-72
2023/10/19 03:26:23;;;;;;;0.98;0.95;;;8.30;99.90;;;;;;5096104;28;20040;-71
2023/10/19 03:28:54;;;;;;;1.30;1.20;;;8.40;99.90;;;;;;5096035;28;20077;-72
2023/10/19 03:31:22;;;;;;;1.52;1.30;;;8.80;99.90;;;;;;5095687;28;20456;-72
2023/10/19 03:33:52;;;;;;;1.13;1.02;;;8.50;99.90;;;;;;5095920;28;20046;-72
2023/10/19 03:36:17;;;;;;;1.30;1.20;;;8.40;99.90;;;;;;5095909;28;20357;-70
2023/10/19 03:38:43;;;;;;;1.10;1.00;;;8.40;99.90;;;;;;5095682;28;20040;-72
2023/10/19 03:41:10;;;;;;;1.10;1.00;;;8.40;99.90;;;;;;5095766;28;20036;-70
2023/10/19 03:43:40;;;;;;;0.90;0.90;;;8.40;99.90;;;;;;5095431;28;20040;-71
2023/10/19 03:46:14;;;;;;;0.95;0.95;;;8.40;99.90;;;;;;5095659;28;20044;-70
2023/10/19 03:48:40;;;;;;;1.60;1.50;;;8.40;99.90;;;;;;5095787;28;20044;-71
2023/10/19 03:51:05;;;;;;;1.02;0.93;;;8.40;99.90;;;;;;5095339;28;20040;-70
2023/10/19 03:53:32;;;;;;;0.90;0.90;;;8.40;99.90;;;;;;5095542;28;20083;-72
2023/10/19 03:55:58;;;;;;;;;;;8.90;99.90;;;;;;5095884;28;20089;-73
2023/10/19 03:58:23;;;;;;;0.90;0.90;;;9.00;99.90;;;;;;5095528;28;19920;-71
2023/10/19 04:00:49;;;;;;;0.90;0.90;;;8.50;99.90;;;;;;5095831;28;20050;-72
2023/10/19 04:03:17;;;;;;;1.10;1.00;;;8.50;99.90;;;;;;5095180;28;20032;-71
2023/10/19 04:05:46;;;;;;;0.90;0.90;;;8.50;99.90;;;;;;5095315;28;20048;-71
2023/10/19 04:08:14;;;;;;;1.40;1.30;;;9.20;99.90;;;;;;5095454;28;20055;-74
2023/10/19 04:11:08;;;;;;;0.90;0.90;;;8.50;99.90;;;;;;5095104;28;20118;-69
2023/10/19 04:13:36;;;;;;;1.40;1.35;;;8.50;99.90;;;;;;5095284;28;20044;-72
2023/10/19 04:16:02;;;;;;;1.10;1.00;;;8.50;99.90;;;;;;5095161;28;20044;-73
2023/10/19 04:18:28;;;;;;;1.17;1.08;;;8.50;99.90;;;;;;5093086;28;20420;-75
2023/10/19 04:23:21;;;;;;;1.00;1.00;;;8.50;99.90;;;;;;5094688;28;20506;-72
2023/10/19 04:25:47;;;;;;;1.00;1.00;;;8.60;99.90;;;;;;5095318;28;20040;-73
2023/10/19 04:28:18;;;;;;;0.80;0.80;;;8.60;99.90;;;;;;5094898;28;20032;-71
2023/10/19 04:30:44;;;;;;;0.90;0.90;;;8.60;99.90;;;;;;5095070;28;20032;-73
2023/10/19 04:33:10;;;;;;;0.90;0.90;;;8.60;99.90;;;;;;5093645;28;20055;-75
2023/10/19 04:35:37;;;;;;;1.10;1.00;;;8.60;99.90;;;;;;5094846;28;20375;-73
2023/10/19 04:38:07;;;;;;;1.20;1.10;;;8.60;99.90;;;;;;5094819;28;20040;-75
2023/10/19 04:40:33;;;;;;;1.20;1.10;;;8.60;99.90;;;;;;5094849;28;20422;-73
2023/10/19 04:43:03;;;;;;;1.27;1.17;;;8.70;99.90;;;;;;5094981;28;20075;-71
2023/10/19 04:45:29;;;;;;;1.10;1.00;;;8.70;99.90;;;;;;5094883;28;20119;-72
2023/10/19 04:47:55;;;;;;;0.90;0.90;;;8.70;99.90;;;;;;5094230;28;20602;-73
2023/10/19 04:50:21;;;;;;;1.45;1.35;;;8.90;99.90;;;;;;5093340;28;20080;-73
2023/10/19 04:52:47;;;;;;;1.00;0.90;;;8.80;99.90;;;;;;5094436;28;20038;-72
2023/10/19 04:55:13;;;;;;;0.90;0.90;;;8.70;99.90;;;;;;5094580;28;20039;-73
2023/10/19 04:57:39;;;;;;;0.80;0.80;;;8.80;99.90;;;;;;5094586;28;20063;-72
2023/10/19 05:00:05;;;;;;;0.90;0.90;;;8.90;99.90;;;;;;5094465;28;20048;-74
2023/10/19 05:02:31;;;;;;;0.90;0.90;;;8.90;99.90;;;;;;5094506;28;20043;-73
2023/10/19 05:04:56;;;;;;;0.80;0.80;;;8.80;99.90;;;;;;5094439;28;20036;-76
2023/10/19 05:07:22;;;;;;;0.90;0.90;;;8.80;99.90;;;;;;5093191;28;20032;-71
2023/10/19 05:09:47;;;;;;;0.90;0.90;;;9.40;99.90;;;;;;5094580;28;20083;-74
2023/10/19 05:12:16;;;;;;;0.90;0.90;;;8.80;99.90;;;;;;5094356;28;20036;-72
2023/10/19 05:14:42;;;;;;;0.80;0.80;;;8.90;99.90;;;;;;5094310;28;20132;-71
2023/10/19 05:17:12;;;;;;;1.07;1.00;;;8.80;99.90;;;;;;5094250;28;20035;-72
2023/10/19 05:19:39;;;;;;;0.80;0.80;;;9.50;99.90;;;;;;5093752;28;20342;-72
2023/10/19 05:22:09;;;;;;;0.80;0.80;;;8.90;99.90;;;;;;5093970;28;20047;-72
2023/10/19 05:24:35;;;;;;;0.80;0.80;;;8.90;99.90;;;;;;5093978;28;20036;-70
2023/10/19 05:27:02;;;;;;;0.90;0.90;;;8.90;99.90;;;;;;5093965;28;20040;-74
2023/10/19 05:29:27;;;;;;;0.98;0.98;;;8.90;99.90;;;;;;5093880;28;20036;-72
2023/10/19 05:31:54;;;;;;;0.90;0.90;;;9.60;99.90;;;;;;5092918;28;20554;-73
2023/10/19 05:34:29;;;;;;;1.15;1.05;;;9.40;99.90;;;;;;5093744;28;20046;-70
2023/10/19 05:36:58;;;;;;;0.80;0.80;;;8.90;99.90;;;;;;5094432;28;20040;-76
2023/10/19 05:39:27;;;;;;;0.70;0.70;;;8.90;99.90;;;;;;5093690;28;20039;-70
2023/10/19 05:41:54;;;;;;;1.23;1.13;;;9.00;99.90;;;;;;5092854;28;20490;-71
2023/10/19 05:44:19;;;;;;;0.80;0.80;;;9.50;99.90;;;;;;5092361;28;20040;-72
2023/10/19 05:46:46;;;;;;;0.75;0.75;;;8.90;99.90;;;;;;5093587;28;20040;-71
2023/10/19 05:49:12;;;;;;;0.80;0.80;;;8.90;99.90;;;;;;5091605;28;20052;-71
2023/10/19 05:51:39;;;;;;;2.00;1.10;;;8.90;99.90;;;;;;5093673;28;20071;-71
2023/10/19 05:54:05;;;;;;;0.80;0.80;;;8.90;99.90;;;;;;5093823;28;20289;-70
2023/10/19 05:56:36;;;;;;;0.77;0.77;;;8.80;99.90;;;;;;5093649;28;20118;-71
2023/10/19 05:59:01;;;;;;;0.77;0.77;;;8.90;99.90;;;;;;5093603;28;20468;-73
2023/10/19 06:01:27;;;;;;;0.77;0.77;;;8.90;99.90;;;;;;5093466;28;20043;-70
2023/10/19 06:03:53;;;;;;;0.80;0.80;;;8.90;99.90;;;;;;5094025;28;20040;-74
2023/10/19 06:06:21;;;;;;;1.25;1.15;;;8.90;99.90;;;;;;5093361;28;20483;-70
2023/10/19 06:08:47;;;;;;;0.73;0.73;;;8.90;99.90;;;;;;5093229;28;20055;-72
2023/10/19 06:11:13;;;;;;;0.70;0.70;;;8.90;99.90;;;;;;5093845;28;20040;-72
2023/10/19 06:13:38;;;;;;;0.80;0.80;;;8.90;99.90;;;;;;5093463;28;20472;-73
2023/10/19 06:16:04;;;;;;;0.80;0.80;;;8.90;99.90;;;;;;5093466;28;20042;-70
2023/10/19 06:18:30;;;;;;;0.75;0.75;;;8.90;99.90;;;;;;5093438;28;20040;-71
2023/10/19 06:20:56;;;;;;;0.80;0.80;;;8.90;99.90;;;;;;5093585;28;20459;-71
2023/10/19 06:23:21;;;;;;;0.80;0.80;;;8.90;99.90;;;;;;5092957;28;20075;-71
2023/10/19 06:25:47;;;;;;;0.70;0.70;;;9.00;99.90;;;;;;5093323;28;20075;-73
2023/10/19 06:28:13;;;;;;;0.77;0.77;;;8.90;99.90;;;;;;5093361;28;20039;-73
2023/10/19 06:30:40;;;;;;;0.85;0.85;;;9.00;99.90;;;;;;5092980;28;20433;-70
2023/10/19 06:33:06;;;;;;;0.70;0.70;;;9.00;99.90;;;;;;5093112;28;20054;-71
2023/10/19 06:35:32;;;;;;;0.70;0.70;;;9.00;99.90;;;;;;5093279;28;20527;-72
2023/10/19 06:38:01;;;;;;;1.37;0.70;;;9.00;99.90;;;;;;5093165;28;20078;-71
2023/10/19 06:40:27;;;;;;;1.65;1.10;;;9.00;99.90;;;;;;5093148;28;20622;-72
2023/10/19 06:42:58;;;;;;;0.80;0.80;;;9.00;99.90;;;;;;5093287;28;20097;-71
2023/10/19 06:45:25;;;;;;;0.70;0.70;;;9.10;99.90;;;;;;5095828;28;20044;-74
2023/10/19 06:47:51;;;;;;;1.40;1.15;;;9.10;99.90;;;;;;5095663;28;20048;-70
2023/10/19 06:50:22;;;;;;;1.13;1.08;;;9.10;99.90;;;;;;5096651;28;20036;-70
2023/10/19 06:52:48;;;;;;;1.17;0.80;;;9.10;99.90;;;;;;5095841;28;20127;-70
2023/10/19 06:55:16;;;;;;;0.70;0.70;;;9.10;99.90;;;;;;5096670;28;20062;-69
2023/10/19 06:57:47;;;;;;;0.70;0.70;;;9.10;99.90;;;;;;5096441;28;20092;-70
2023/10/19 07:00:26;;;;;;;0.70;0.70;;;9.10;99.90;;;;;;5096628;28;20092;-70
2023/10/19 07:02:54;;;;;;;0.70;0.70;;;9.20;99.90;;;;;;5096141;28;20043;-69
2023/10/19 07:05:24;;;;;;;0.70;0.70;;;9.10;99.90;;;;;;5096558;28;20408;-70
2023/10/19 07:07:53;;;;;;;0.77;0.77;;;9.20;99.90;;;;;;5096383;28;20074;-70
2023/10/19 07:10:20;;;;;;;0.70;0.70;;;9.20;99.90;;;;;;5096558;28;20067;-70
2023/10/19 07:12:47;;;;;;;0.70;0.70;;;9.20;99.90;;;;;;5096227;28;20123;-70
2023/10/19 07:15:14;;;;;;;0.90;0.90;;;9.20;99.90;;;;;;5096330;28;20634;-70
2023/10/19 07:17:43;;;;;;;0.90;0.90;;;9.20;99.90;;;;;;5096345;28;20043;-70
2023/10/19 07:20:25;;;;;;;0.73;0.73;;;9.20;99.90;;;;;;5096252;28;20387;-70
2023/10/19 07:22:51;;;;;;;0.90;0.90;;;9.30;99.90;;;;;;5096051;28;20365;-70
2023/10/19 07:25:21;;;;;;;0.80;0.80;;;9.40;99.90;;;;;;5096144;28;20134;-70
2023/10/19 07:27:50;;;;;;;2.55;1.17;;;9.30;99.90;;;;;;5096101;28;20128;-70
2023/10/19 07:30:20;;;;;;;0.70;0.70;;;9.30;99.90;;;;;;5096129;28;20043;-70
2023/10/19 07:32:58;;;;;;;0.80;0.80;;;9.30;99.90;;;;;;5096151;28;20126;-70
2023/10/19 07:35:26;;;;;;;0.70;0.70;;;9.30;99.90;;;;;;5096106;28;20036;-69
2023/10/19 07:37:52;;;;;;;0.70;0.70;;;9.30;99.90;;;;;;5095505;28;20055;-70
2023/10/19 07:40:18;;;;;;;0.80;0.80;;;9.30;99.90;;;;;;5095839;28;20122;-70
2023/10/19 07:42:49;;;;;;;0.80;0.80;;;9.30;99.90;;;;;;5095862;28;20040;-70
2023/10/19 07:45:15;;;;;;;0.70;0.70;;;9.30;99.90;;;;;;5095511;28;20536;-70
2023/10/19 07:47:41;;;;;;;0.70;0.70;;;9.30;99.90;;;;;;5095866;28;20047;-70
2023/10/19 07:50:17;;;;;;;1.05;0.95;;;9.30;99.90;;;;;;5095663;28;20036;-70
2023/10/19 07:52:53;;;;;;;0.70;0.70;;;9.40;99.90;;;;;;5095881;28;20036;-71
2023/10/19 07:55:22;;;;;;;0.70;0.70;;;9.40;99.90;;;;;;5094954;28;20126;-71
2023/10/19 07:57:50;;;;;;;0.80;0.80;;;9.40;99.90;;;;;;5095496;28;20047;-73
2023/10/19 08:00:17;;;;;;;0.80;0.80;;;9.40;99.90;;;;;;5095475;28;20054;-71
2023/10/19 08:02:46;;;;;;;0.70;0.70;;;9.40;99.90;;;;;;5095419;28;20036;-71
2023/10/19 08:05:18;;;;;;;0.63;0.63;;;9.40;99.90;;;;;;5095402;28;20421;-71
2023/10/19 08:07:44;;;;;;;0.70;0.70;;;9.40;99.90;;;;;;5095118;28;20426;-70
2023/10/19 08:10:11;;;;;;;0.70;0.70;;;9.40;99.90;;;;;;5095592;28;20130;-70
2023/10/19 08:12:37;;;;;;;;;;;9.50;99.90;;;;;;5095601;28;20044;-71
2023/10/19 08:15:04;;;;;;;0.90;0.90;;;9.50;99.90;;;;;;5095151;28;20335;-71
2023/10/19 08:17:30;;;;;;;0.90;0.90;;;9.50;99.90;;;;;;5094638;28;20039;-71
2023/10/19 08:19:56;;;;;;;1.00;0.80;;;9.50;99.90;;;;;;5094155;28;20371;-71
2023/10/19 08:22:23;;;;;;;1.20;1.10;;;9.50;99.90;;;;;;5094699;28;20528;-72
2023/10/19 08:24:49;;;;;;;0.73;0.73;;;9.60;99.90;;;;;;5095197;28;20040;-72
2023/10/19 08:27:17;;;;;;;0.80;0.80;;;9.60;99.90;;;;;;5093727;28;20475;-73
2023/10/19 08:29:43;;;;;;;0.70;0.70;;;9.60;99.90;;;;;;5094548;28;20472;-74
2023/10/19 08:32:09;;;;;;;0.70;0.70;;;9.60;99.90;;;;;;5094593;28;20032;-71
2023/10/19 08:34:38;;;;;;;1.20;1.10;;;9.60;99.90;;;;;;5094804;28;20035;-77
2023/10/19 08:37:06;;;;;;;0.70;0.70;;;9.60;99.90;;;;;;5094702;28;20040;-70
2023/10/19 08:39:36;;;;;;;0.70;0.70;;;9.70;99.90;;;;;;5094876;28;20468;-75
2023/10/19 08:42:04;;;;;;;0.80;0.80;;;10.10;99.90;;;;;;5094309;28;20459;-74
2023/10/19 08:44:30;;;;;;;0.70;0.70;;;9.70;99.90;;;;;;5095986;28;20055;-75
2023/10/19 08:46:57;;;;;;;0.85;0.85;;;9.70;99.90;;;;;;5094193;28;20479;-74
2023/10/19 08:49:23;;;;;;;;;;;9.80;99.90;;;;;;5094908;28;20036;-73
2023/10/19 08:51:51;;;;;;;0.80;0.80;;;10.40;99.90;;;;;;5094685;28;20438;-73
2023/10/19 08:54:16;;;;;;;1.50;1.40;;;9.80;99.90;;;;;;5094430;28;20069;-73
2023/10/19 08:56:44;;;;;;;0.70;0.70;;;9.90;99.90;;;;;;5094733;28;20032;-72
2023/10/19 08:59:15;;;;;;;0.70;0.70;;;10.00;99.90;;;;;;5094635;28;20062;-73
2023/10/19 09:01:43;;;;;;;0.75;0.75;;;10.10;99.90;;;;;;5095479;28;20036;-74
2023/10/19 09:04:10;;;;;;;0.70;0.70;;;10.00;99.90;;;;;;5094517;28;20048;-73
2023/10/19 09:06:44;;;;;;;1.02;1.02;;;10.00;99.90;;;;;;5093455;28;20040;-72
2023/10/19 09:09:19;;;;;;;1.52;1.42;;;10.10;99.90;;;;;;5094786;28;20384;-73
2023/10/19 09:11:46;;;;;;;0.80;0.80;;;10.10;99.90;;;;;;5093971;28;20063;-72
2023/10/19 09:14:12;;;;;;;1.00;0.90;;;10.20;99.90;;;;;;5093295;28;20048;-70
2023/10/19 09:16:52;;;;;;;0.70;0.70;;;10.20;99.90;;;;;;5093338;28;20089;-72
2023/10/19 09:19:19;;;;;;;0.70;0.70;;;10.50;99.90;;;;;;5094121;28;20075;-72
2023/10/19 09:21:46;;;;;;;0.90;0.90;;;10.20;99.90;;;;;;5093679;28;20044;-71
2023/10/19 09:24:12;;;;;;;1.00;1.00;;;10.20;99.90;;;;;;5093853;28;20087;-72
2023/10/19 09:26:37;;;;;;;0.75;0.73;;;10.20;99.90;;;;;;5093851;28;20165;-72
2023/10/19 09:29:03;;;;;;;0.80;0.80;;;10.20;99.90;;;;;;5093825;28;20089;-71
2023/10/19 09:31:30;;;;;;;0.70;0.70;;;10.30;99.90;;;;;;5093585;28;20119;-72
2023/10/19 09:33:57;;;;;;;0.80;0.80;;;10.30;99.90;;;;;;5093969;28;20040;-73
2023/10/19 09:36:26;;;;;;;0.60;0.60;;;10.30;99.90;;;;;;5093675;28;20083;-73
2023/10/19 09:38:52;;;;;;;0.90;0.90;;;10.40;99.90;;;;;;5093649;28;20036;-72
2023/10/19 09:41:19;;;;;;;2.20;2.00;;;10.90;99.90;;;;;;5093608;28;20429;-74
2023/10/19 09:43:49;;;;;;;0.70;0.70;;;10.50;99.90;;;;;;5093633;28;20048;-72
2023/10/19 09:46:26;;;;;;;0.60;0.60;;;10.50;99.90;;;;;;5093495;28;20368;-70
2023/10/19 09:48:52;;;;;;;0.65;0.65;;;10.50;99.90;;;;;;5093781;28;20056;-71
2023/10/19 09:51:19;;;;;;;0.70;0.70;;;11.10;99.90;;;;;;5093516;28;20106;-72
2023/10/19 09:54:05;;;;;;;0.60;0.60;;;10.50;99.90;;;;;;5093235;28;20052;-71
2023/10/19 09:56:46;;;;;;;1.17;1.13;;;10.50;99.90;;;;;;5093429;28;20048;-71
2023/10/19 09:59:31;;;;;;;0.60;0.60;;;10.60;99.90;;;;;;5093565;28;20108;-71
2023/10/19 10:02:04;;;;;;;0.70;0.70;;;10.50;99.90;;;;;;5093422;28;20119;-71
2023/10/19 10:04:35;;;;;;;1.08;1.08;;;10.50;99.90;;;;;;5093321;28;20062;-71
2023/10/19 10:07:01;;;;;;;0.70;0.70;;;10.60;99.90;;;;;;5093248;28;20126;-71
2023/10/19 10:09:26;;;;;;;0.70;0.70;;;10.90;99.90;;;;;;5093227;28;20379;-70
2023/10/19 10:11:53;;;;;;;0.70;0.70;;;10.60;99.90;;;;;;5093283;28;20059;-71
2023/10/19 10:14:28;;;;;;;0.60;0.60;;;10.70;99.90;;;;;;5093038;28;20055;-70
2023/10/19 10:17:04;;;;;;;0.70;0.70;;;10.60;99.90;;;;;;5094222;28;20122;-71
2023/10/19 10:19:30;;;;;;;0.70;0.70;;;10.60;99.90;;;;;;5097599;28;20043;-73
2023/10/19 10:22:14;;;;;;;1.27;1.17;;;10.70;99.90;;;;;;5097387;28;20040;-71
2023/10/19 10:24:43;;;;;;;2.55;1.30;;;10.70;99.90;;;;;;5097337;28;20047;-71
2023/10/19 10:27:10;;;;;;;0.80;0.80;;;10.70;99.90;;;;;;5097078;28;20071;-71
2023/10/19 10:29:36;;;;;;;0.70;0.70;;;10.90;99.90;;;;;;5095930;28;20036;-71
2023/10/19 10:32:03;;;;;;;0.60;0.60;;;10.80;99.90;;;;;;5097014;28;20036;-72
2023/10/19 10:34:37;;;;;;;0.98;0.98;;;10.80;99.90;;;;;;5097076;28;20040;-75
2023/10/19 10:37:05;;;;;;;0.60;0.60;;;10.80;99.90;;;;;;5096913;28;20054;-73
2023/10/19 10:39:31;;;;;;;0.75;0.75;;;10.80;99.90;;;;;;5096889;28;20115;-74
2023/10/19 10:42:05;;;;;;;0.90;0.90;;;10.90;99.90;;;;;;5097241;28;20032;-74
2023/10/19 10:44:42;;;;;;;1.90;1.75;;;11.80;99.90;;;;;;5097319;28;20065;-72
2023/10/19 10:47:21;;;;;;;0.70;0.70;;;10.90;99.90;;;;;;5097418;28;20036;-76
2023/10/19 10:49:58;;;;;;;0.70;0.70;;;10.90;99.90;;;;;;5097086;28;20387;-73
2023/10/19 10:52:35;;;;;;;0.70;0.70;;;10.90;99.90;;;;;;5095778;28;20109;-75
2023/10/19 10:55:11;;;;;;;0.85;0.85;;;11.60;99.90;;;;;;5097054;28;20071;-75
2023/10/19 10:57:38;;;;;;;0.80;0.80;;;11.00;99.90;;;;;;5096580;28;20036;-76
2023/10/19 11:00:20;;;;;;;0.80;0.80;;;11.00;99.90;;;;;;5096762;28;20040;-75
2023/10/19 11:03:00;;;;;;;0.70;0.70;;;11.00;99.90;;;;;;5096588;28;20376;-78
2023/10/19 11:05:26;;;;;;;;;;;11.20;99.90;;;;;;5096569;28;20490;-76
2023/10/19 11:08:13;;;;;;;0.60;0.60;;;11.00;99.90;;;;;;5085027;28;19928;-75
2023/10/19 11:10:44;;;;;;;0.80;0.80;;;11.10;99.90;;;;;;5088720;28;20131;-74
2023/10/19 11:13:14;;;;;;;0.95;0.95;;;11.10;99.90;;;;;;5085006;28;20101;-74
2023/10/19 11:15:49;;;;;;;0.80;0.80;;;11.70;99.90;;;;;;5079352;28;20066;-76
2023/10/19 11:18:42;;;;;;;0.70;0.70;;;11.20;99.90;;;;;;5080489;28;20103;-74
2023/10/19 11:21:11;;;;;;;1.38;1.27;;;11.20;99.90;;;;;;5075528;28;20465;-72
2023/10/19 11:23:42;;;;;;;0.70;0.70;;;11.40;99.90;;;;;;5075350;28;20154;-74
2023/10/19 11:26:09;;;;;;;0.80;0.80;;;11.10;99.90;;;;;;5075645;28;20119;-73
2023/10/19 11:28:42;;;;;;;0.70;0.70;;;11.20;99.90;;;;;;5075289;28;20480;-73
2023/10/19 11:31:23;;;;;;;0.60;0.60;;;11.30;99.90;;;;;;5075562;28;20079;-77
2023/10/19 11:33:51;;;;;;;0.70;0.70;;;11.20;99.90;;;;;;5075366;28;20037;-72
2023/10/19 11:36:18;;;;;;;0.60;0.60;;;11.20;99.90;;;;;;5075488;28;20119;-75
2023/10/19 11:38:46;;;;;;;0.70;0.70;;;11.20;99.90;;;;;;5075389;28;20055;-74
2023/10/19 11:41:13;;;;;;;0.70;0.70;;;11.30;99.90;;;;;;5075224;28;20119;-73
2023/10/19 11:43:42;;;;;;;0.80;0.80;;;11.70;99.90;;;;;;5075421;28;20047;-73
2023/10/19 11:46:09;;;;;;;0.60;0.60;;;11.60;99.90;;;;;;5075373;28;20071;-73
2023/10/19 11:48:36;;;;;;;0.80;0.80;;;11.60;99.90;;;;;;5075119;28;20047;-73
2023/10/19 11:51:05;;;;;;;0.68;0.68;;;11.60;99.90;;;;;;5075184;28;20036;-74
2023/10/19 11:53:36;;;;;;;0.60;0.60;;;11.70;99.90;;;;;;5075050;28;20037;-75
2023/10/19 11:56:09;;;;;;;0.90;0.90;;;11.90;99.90;;;;;;5073860;28;20052;-73
2023/10/19 11:58:37;;;;;;;0.88;0.70;;;11.80;99.90;;;;;;5074995;28;20055;-74
2023/10/19 12:01:05;;;;;;;0.80;0.75;;;11.90;99.90;;;;;;5074645;28;20122;-73
2023/10/19 12:03:31;;;;;;;0.80;0.80;;;11.90;99.90;;;;;;5075198;28;20427;-73
2023/10/19 12:05:59;;;;;;;0.90;0.90;;;11.90;99.90;;;;;;5075000;28;20079;-75
2023/10/19 12:08:24;;;;;;;0.60;0.60;;;11.90;99.90;;;;;;5074981;28;20056;-74
2023/10/19 12:10:51;;;;;;;0.60;0.60;;;12.40;99.90;;;;;;5075060;28;20576;-79
2023/10/19 12:13:17;;;;;;;0.60;0.60;;;12.10;99.90;;;;;;5075340;28;20111;-74
2023/10/19 12:15:51;;;;;;;1.70;1.58;;;12.10;99.90;;;;;;5075014;28;20086;-78
2023/10/19 12:18:20;;;;;;;0.60;0.60;;;12.20;99.90;;;;;;5075307;28;20052;-78
2023/10/19 12:20:46;;;;;;;0.60;0.60;;;12.30;99.90;;;;;;5075485;28;20052;-79
2023/10/19 12:23:12;;;;;;;1.25;1.15;;;12.10;99.90;;;;;;5075213;28;20040;-75
2023/10/19 12:25:38;;;;;;;0.60;0.60;;;12.10;99.90;;;;;;5074735;28;20052;-76
2023/10/19 12:28:04;;;;;;;0.60;0.60;;;12.10;99.90;;;;;;5074070;28;20028;-76
2023/10/19 12:30:36;;;;;;;1.80;1.70;;;12.10;99.90;;;;;;5074261;28;20045;-75
2023/10/19 12:33:07;;;;;;;0.70;0.70;;;12.20;99.90;;;;;;5074184;28;20033;-76
2023/10/19 12:35:49;;;;;;;1.00;0.90;;;12.20;99.90;;;;;;5074625;28;20041;-79
2023/10/19 12:38:16;;;;;;;0.80;0.80;;;12.30;99.90;;;;;;5074124;28;20048;-73
2023/10/19 12:40:46;;;;;;;1.10;1.05;;;12.40;99.90;;;;;;5073327;28;20484;-76
2023/10/19 12:43:13;;;;;;;0.80;0.80;;;12.40;99.90;;;;;;5074195;28;20059;-80
2023/10/19 12:45:39;;;;;;;0.60;0.60;;;12.50;99.90;;;;;;5074014;28;20098;-76
2023/10/19 12:48:06;;;;;;;0.60;0.60;;;12.50;99.90;;;;;;5074153;28;20036;-76
2023/10/19 12:50:34;;;;;;;1.35;0.80;;;12.60;99.90;;;;;;5074120;28;20048;-76
2023/10/19 12:53:00;;;;;;;1.35;1.25;;;12.60;99.90;;;;;;5073979;28;20114;-77
2023/10/19 12:55:30;;;;;;;0.67;0.60;;;12.60;99.90;;;;;;5073442;28;20124;-76
2023/10/19 12:58:06;;;;;;;0.60;0.60;;;12.60;99.90;;;;;;5072804;28;20087;-76
2023/10/19 13:00:43;;;;;;;1.38;1.13;;;12.70;99.90;;;;;;5073997;28;20095;-80
2023/10/19 13:03:13;;;;;;;0.80;0.80;;;12.70;99.90;;;;;;5074106;28;20032;-77
2023/10/19 13:05:40;;;;;;;0.73;0.73;;;12.70;99.90;;;;;;5073648;28;20414;-77
2023/10/19 13:08:07;;;;;;;0.60;0.60;;;12.60;99.90;;;;;;5073264;28;20364;-75
2023/10/19 13:10:34;;;;;;;0.60;0.60;;;12.60;99.90;;;;;;5073484;28;20483;-75
2023/10/19 13:13:05;;;;;;;4.75;1.73;;;12.50;99.90;;;;;;5055824;28;20034;-73
2023/10/19 13:15:36;;;;;;;0.70;0.70;;;12.50;99.90;;;;;;5073655;28;20032;-73
2023/10/19 13:18:02;;;;;;;0.60;0.60;;;12.30;99.90;;;;;;5073424;28;20048;-75
2023/10/19 13:20:33;;;;;;;1.13;1.08;;;12.30;99.90;;;;;;5073526;28;20083;-74
2023/10/19 13:23:01;;;;;;;1.15;1.05;;;12.30;99.90;;;;;;5073617;28;20040;-71
2023/10/19 13:25:46;;;;;;;0.73;0.73;;;12.20;99.90;;;;;;5072244;28;20044;-72
2023/10/19 13:28:12;;;;;;;25.55;2.85;;;12.20;99.90;;;;;;5073454;28;20102;-71
2023/10/19 13:30:38;;;;;;;0.70;0.70;;;12.20;99.90;;;;;;5073166;28;20047;-73
2023/10/19 13:33:06;;;;;;;0.70;0.70;;;12.20;99.90;;;;;;5073234;28;20123;-73